sensor_id;sensor_type;location;lat;lon;timestamp;P1;durP1;ratioP1;P2;durP2;ratioP2
11222;SDS011;5668;52.012;8.724;2023-07-29T00:00:16;1.50;;;1.40;;
11222;SDS011;5668;52.012;8.724;2023-07-29T00:02:44;1.50;;;1.40;;
11222;SDS011;5668;52.012;8.724;2023-07-29T00:05:11;1.65;;;1.55;;
11222;SDS011;5668;52.012;8.724;2023-07-29T00:07:40;2.28;;;1.73;;
11222;SDS011;5668;52.012;8.724;2023-07-29T00:10:08;1.40;;;1.30;;
11222;SDS011;5668;52.012;8.724;2023-07-29T00:12:36;1.90;;;1.27;;
11222;SDS011;5668;52.012;8.724;2023-07-29T00:15:04;2.22;;;1.45;;
11222;SDS011;5668;52.012;8.724;2023-07-29T00:17:32;1.83;;;1.27;;
11222;SDS011;5668;52.012;8.724;2023-07-29T00:19:59;1.85;;;1.30;;
11222;SDS011;5668;52.012;8.724;2023-07-29T00:22:27;1.77;;;1.67;;
11222;SDS011;5668;52.012;8.724;2023-07-29T00:24:56;2.28;;;1.60;;
11222;SDS011;5668;52.012;8.724;2023-07-29T00:27:24;2.17;;;1.50;;
11222;SDS011;5668;52.012;8.724;2023-07-29T00:29:52;1.80;;;1.55;;
11222;SDS011;5668;52.012;8.724;2023-07-29T00:32:19;1.40;;;1.30;;
11222;SDS011;5668;52.012;8.724;2023-07-29T00:34:46;1.70;;;1.60;;
11222;SDS011;5668;52.012;8.724;2023-07-29T00:37:13;1.95;;;1.45;;
11222;SDS011;5668;52.012;8.724;2023-07-29T00:39:40;1.60;;;1.50;;
11222;SDS011;5668;52.012;8.724;2023-07-29T00:42:09;1.60;;;1.50;;
11222;SDS011;5668;52.012;8.724;2023-07-29T00:44:36;2.47;;;1.60;;
11222;SDS011;5668;52.012;8.724;2023-07-29T00:47:04;1.65;;;1.55;;
11222;SDS011;5668;52.012;8.724;2023-07-29T00:49:33;1.70;;;1.60;;
11222;SDS011;5668;52.012;8.724;2023-07-29T00:52:00;1.70;;;1.60;;
11222;SDS011;5668;52.012;8.724;2023-07-29T00:54:27;2.05;;;1.65;;
11222;SDS011;5668;52.012;8.724;2023-07-29T00:56:55;1.95;;;1.70;;
11222;SDS011;5668;52.012;8.724;2023-07-29T00:59:23;2.38;;;1.70;;
11222;SDS011;5668;52.012;8.724;2023-07-29T01:01:53;1.70;;;1.52;;
11222;SDS011;5668;52.012;8.724;2023-07-29T01:04:20;3.03;;;1.70;;
11222;SDS011;5668;52.012;8.724;2023-07-29T01:06:52;1.77;;;1.42;;
11222;SDS011;5668;52.012;8.724;2023-07-29T01:09:25;1.58;;;1.48;;
11222;SDS011;5668;52.012;8.724;2023-07-29T01:12:06;2.05;;;1.60;;
11222;SDS011;5668;52.012;8.724;2023-07-29T01:14:46;1.80;;;1.70;;
11222;SDS011;5668;52.012;8.724;2023-07-29T01:17:22;1.70;;;1.60;;
11222;SDS011;5668;52.012;8.724;2023-07-29T01:19:59;1.90;;;1.67;;
11222;SDS011;5668;52.012;8.724;2023-07-29T01:22:30;2.63;;;1.73;;
11222;SDS011;5668;52.012;8.724;2023-07-29T01:25:01;1.48;;;1.38;;
11222;SDS011;5668;52.012;8.724;2023-07-29T01:27:28;1.63;;;1.52;;
11222;SDS011;5668;52.012;8.724;2023-07-29T01:29:56;1.98;;;1.65;;
11222;SDS011;5668;52.012;8.724;2023-07-29T01:32:27;2.20;;;1.70;;
11222;SDS011;5668;52.012;8.724;2023-07-29T01:35:00;1.73;;;1.40;;
11222;SDS011;5668;52.012;8.724;2023-07-29T01:37:36;1.70;;;1.60;;
11222;SDS011;5668;52.012;8.724;2023-07-29T01:40:07;1.60;;;1.50;;
11222;SDS011;5668;52.012;8.724;2023-07-29T01:42:37;2.30;;;1.40;;
11222;SDS011;5668;52.012;8.724;2023-07-29T01:45:04;1.70;;;1.60;;
11222;SDS011;5668;52.012;8.724;2023-07-29T01:47:32;2.08;;;1.52;;
11222;SDS011;5668;52.012;8.724;2023-07-29T01:49:59;2.33;;;1.75;;
11222;SDS011;5668;52.012;8.724;2023-07-29T01:52:28;1.58;;;1.48;;
11222;SDS011;5668;52.012;8.724;2023-07-29T01:54:55;1.70;;;1.60;;
11222;SDS011;5668;52.012;8.724;2023-07-29T01:57:24;5.18;;;1.63;;
11222;SDS011;5668;52.012;8.724;2023-07-29T01:59:51;1.92;;;1.55;;
11222;SDS011;5668;52.012;8.724;2023-07-29T02:02:18;1.40;;;1.30;;
11222;SDS011;5668;52.012;8.724;2023-07-29T02:04:45;3.10;;;1.42;;
11222;SDS011;5668;52.012;8.724;2023-07-29T02:07:16;1.58;;;1.48;;
11222;SDS011;5668;52.012;8.724;2023-07-29T02:09:44;1.52;;;1.40;;
11222;SDS011;5668;52.012;8.724;2023-07-29T02:12:11;1.60;;;1.40;;
11222;SDS011;5668;52.012;8.724;2023-07-29T02:14:39;1.70;;;1.60;;
11222;SDS011;5668;52.012;8.724;2023-07-29T02:17:07;1.70;;;1.60;;
11222;SDS011;5668;52.012;8.724;2023-07-29T02:19:34;1.50;;;1.40;;
11222;SDS011;5668;52.012;8.724;2023-07-29T02:22:01;2.58;;;1.70;;
11222;SDS011;5668;52.012;8.724;2023-07-29T02:24:29;3.28;;;1.50;;
11222;SDS011;5668;52.012;8.724;2023-07-29T02:26:56;1.58;;;1.48;;
11222;SDS011;5668;52.012;8.724;2023-07-29T02:29:23;1.60;;;1.50;;
11222;SDS011;5668;52.012;8.724;2023-07-29T02:31:52;2.67;;;1.60;;
11222;SDS011;5668;52.012;8.724;2023-07-29T02:34:19;2.20;;;1.50;;
11222;SDS011;5668;52.012;8.724;2023-07-29T02:36:46;2.30;;;1.85;;
11222;SDS011;5668;52.012;8.724;2023-07-29T02:39:14;1.67;;;1.58;;
11222;SDS011;5668;52.012;8.724;2023-07-29T02:41:41;1.42;;;1.33;;
11222;SDS011;5668;52.012;8.724;2023-07-29T02:44:08;6.28;;;1.83;;
11222;SDS011;5668;52.012;8.724;2023-07-29T02:46:35;2.17;;;1.70;;
11222;SDS011;5668;52.012;8.724;2023-07-29T02:49:04;1.50;;;1.40;;
11222;SDS011;5668;52.012;8.724;2023-07-29T02:51:31;1.60;;;1.50;;
11222;SDS011;5668;52.012;8.724;2023-07-29T02:53:58;1.88;;;1.60;;
11222;SDS011;5668;52.012;8.724;2023-07-29T02:56:26;1.80;;;1.70;;
11222;SDS011;5668;52.012;8.724;2023-07-29T02:58:53;1.50;;;1.40;;
11222;SDS011;5668;52.012;8.724;2023-07-29T03:01:20;1.60;;;1.50;;
11222;SDS011;5668;52.012;8.724;2023-07-29T03:03:50;1.67;;;1.58;;
11222;SDS011;5668;52.012;8.724;2023-07-29T03:06:18;1.80;;;1.70;;
11222;SDS011;5668;52.012;8.724;2023-07-29T03:08:46;1.80;;;1.70;;
11222;SDS011;5668;52.012;8.724;2023-07-29T03:11:13;2.53;;;1.55;;
11222;SDS011;5668;52.012;8.724;2023-07-29T03:13:41;1.63;;;1.52;;
11222;SDS011;5668;52.012;8.724;2023-07-29T03:16:10;1.60;;;1.50;;
11222;SDS011;5668;52.012;8.724;2023-07-29T03:18:38;1.55;;;1.45;;
11222;SDS011;5668;52.012;8.724;2023-07-29T03:21:05;1.80;;;1.70;;
11222;SDS011;5668;52.012;8.724;2023-07-29T03:23:35;1.70;;;1.60;;
11222;SDS011;5668;52.012;8.724;2023-07-29T03:26:03;2.25;;;1.60;;
11222;SDS011;5668;52.012;8.724;2023-07-29T03:28:35;1.75;;;1.65;;
11222;SDS011;5668;52.012;8.724;2023-07-29T03:31:03;1.67;;;1.58;;
11222;SDS011;5668;52.012;8.724;2023-07-29T03:33:30;1.70;;;1.60;;
11222;SDS011;5668;52.012;8.724;2023-07-29T03:35:58;2.00;;;1.80;;
11222;SDS011;5668;52.012;8.724;2023-07-29T03:38:25;2.53;;;1.75;;
11222;SDS011;5668;52.012;8.724;2023-07-29T03:40:54;1.50;;;1.40;;
11222;SDS011;5668;52.012;8.724;2023-07-29T03:43:21;1.73;;;1.63;;
11222;SDS011;5668;52.012;8.724;2023-07-29T03:45:48;1.88;;;1.52;;
11222;SDS011;5668;52.012;8.724;2023-07-29T03:48:15;1.63;;;1.45;;
11222;SDS011;5668;52.012;8.724;2023-07-29T03:50:42;1.80;;;1.42;;
11222;SDS011;5668;52.012;8.724;2023-07-29T03:53:10;1.63;;;1.52;;
11222;SDS011;5668;52.012;8.724;2023-07-29T03:55:37;1.83;;;1.73;;
11222;SDS011;5668;52.012;8.724;2023-07-29T03:58:05;1.60;;;1.50;;
11222;SDS011;5668;52.012;8.724;2023-07-29T04:00:33;1.67;;;1.55;;
11222;SDS011;5668;52.012;8.724;2023-07-29T04:03:00;1.60;;;1.50;;
11222;SDS011;5668;52.012;8.724;2023-07-29T04:05:27;1.73;;;1.63;;
11222;SDS011;5668;52.012;8.724;2023-07-29T04:07:54;1.60;;;1.50;;
11222;SDS011;5668;52.012;8.724;2023-07-29T04:10:22;1.60;;;1.50;;
11222;SDS011;5668;52.012;8.724;2023-07-29T04:12:49;2.95;;;1.65;;
11222;SDS011;5668;52.012;8.724;2023-07-29T04:15:17;1.80;;;1.70;;
11222;SDS011;5668;52.012;8.724;2023-07-29T04:17:45;2.05;;;1.70;;
11222;SDS011;5668;52.012;8.724;2023-07-29T04:20:12;2.13;;;1.67;;
11222;SDS011;5668;52.012;8.724;2023-07-29T04:22:40;1.63;;;1.52;;
11222;SDS011;5668;52.012;8.724;2023-07-29T04:25:07;3.50;;;1.67;;
11222;SDS011;5668;52.012;8.724;2023-07-29T04:27:35;2.03;;;1.83;;
11222;SDS011;5668;52.012;8.724;2023-07-29T04:30:02;2.20;;;2.00;;
11222;SDS011;5668;52.012;8.724;2023-07-29T04:32:31;1.40;;;1.30;;
11222;SDS011;5668;52.012;8.724;2023-07-29T04:34:58;2.47;;;1.70;;
11222;SDS011;5668;52.012;8.724;2023-07-29T04:37:26;1.70;;;1.60;;
11222;SDS011;5668;52.012;8.724;2023-07-29T04:39:53;1.52;;;1.42;;
11222;SDS011;5668;52.012;8.724;2023-07-29T04:42:20;1.70;;;1.60;;
11222;SDS011;5668;52.012;8.724;2023-07-29T04:44:47;1.80;;;1.70;;
11222;SDS011;5668;52.012;8.724;2023-07-29T04:47:14;1.90;;;1.70;;
11222;SDS011;5668;52.012;8.724;2023-07-29T04:49:43;1.67;;;1.58;;
11222;SDS011;5668;52.012;8.724;2023-07-29T04:52:10;1.95;;;1.65;;
11222;SDS011;5668;52.012;8.724;2023-07-29T04:54:37;2.00;;;1.90;;
11222;SDS011;5668;52.012;8.724;2023-07-29T04:57:05;2.85;;;1.60;;
11222;SDS011;5668;52.012;8.724;2023-07-29T04:59:32;1.60;;;1.50;;
11222;SDS011;5668;52.012;8.724;2023-07-29T05:01:59;1.60;;;1.50;;
11222;SDS011;5668;52.012;8.724;2023-07-29T05:04:26;2.63;;;1.83;;
11222;SDS011;5668;52.012;8.724;2023-07-29T05:06:55;1.73;;;1.63;;
11222;SDS011;5668;52.012;8.724;2023-07-29T05:09:22;1.85;;;1.75;;
11222;SDS011;5668;52.012;8.724;2023-07-29T05:11:49;1.85;;;1.75;;
11222;SDS011;5668;52.012;8.724;2023-07-29T05:14:17;1.80;;;1.70;;
11222;SDS011;5668;52.012;8.724;2023-07-29T05:16:44;2.80;;;1.75;;
11222;SDS011;5668;52.012;8.724;2023-07-29T05:19:12;1.95;;;1.75;;
11222;SDS011;5668;52.012;8.724;2023-07-29T05:21:40;2.33;;;1.77;;
11222;SDS011;5668;52.012;8.724;2023-07-29T05:24:08;1.70;;;1.60;;
11222;SDS011;5668;52.012;8.724;2023-07-29T05:26:35;2.13;;;1.55;;
11222;SDS011;5668;52.012;8.724;2023-07-29T05:29:03;2.05;;;1.85;;
11222;SDS011;5668;52.012;8.724;2023-07-29T05:31:30;2.38;;;1.60;;
11222;SDS011;5668;52.012;8.724;2023-07-29T05:33:57;1.70;;;1.60;;
11222;SDS011;5668;52.012;8.724;2023-07-29T05:36:24;1.73;;;1.50;;
11222;SDS011;5668;52.012;8.724;2023-07-29T05:38:52;1.70;;;1.58;;
11222;SDS011;5668;52.012;8.724;2023-07-29T05:41:20;1.50;;;1.40;;
11222;SDS011;5668;52.012;8.724;2023-07-29T05:43:47;2.10;;;1.90;;
11222;SDS011;5668;52.012;8.724;2023-07-29T05:46:15;1.70;;;1.60;;
11222;SDS011;5668;52.012;8.724;2023-07-29T05:48:42;2.15;;;1.70;;
11222;SDS011;5668;52.012;8.724;2023-07-29T05:51:10;1.45;;;1.35;;
11222;SDS011;5668;52.012;8.724;2023-07-29T05:53:37;1.80;;;1.70;;
11222;SDS011;5668;52.012;8.724;2023-07-29T05:56:04;2.35;;;1.35;;
11222;SDS011;5668;52.012;8.724;2023-07-29T05:58:32;2.33;;;1.60;;
11222;SDS011;5668;52.012;8.724;2023-07-29T06:01:00;1.65;;;1.40;;
11222;SDS011;5668;52.012;8.724;2023-07-29T06:03:27;1.50;;;1.40;;
11222;SDS011;5668;52.012;8.724;2023-07-29T06:05:54;2.88;;;1.70;;
11222;SDS011;5668;52.012;8.724;2023-07-29T06:08:21;1.48;;;1.38;;
11222;SDS011;5668;52.012;8.724;2023-07-29T06:10:48;2.15;;;1.48;;
11222;SDS011;5668;52.012;8.724;2023-07-29T06:13:16;1.40;;;1.30;;
11222;SDS011;5668;52.012;8.724;2023-07-29T06:15:44;1.40;;;1.30;;
11222;SDS011;5668;52.012;8.724;2023-07-29T06:18:11;1.23;;;1.13;;
11222;SDS011;5668;52.012;8.724;2023-07-29T06:20:39;1.85;;;1.35;;
11222;SDS011;5668;52.012;8.724;2023-07-29T06:23:06;1.30;;;1.20;;
11222;SDS011;5668;52.012;8.724;2023-07-29T06:25:34;1.10;;;0.95;;
11222;SDS011;5668;52.012;8.724;2023-07-29T06:28:01;2.10;;;1.20;;
11222;SDS011;5668;52.012;8.724;2023-07-29T06:30:28;1.20;;;1.10;;
11222;SDS011;5668;52.012;8.724;2023-07-29T06:32:57;1.60;;;1.25;;
11222;SDS011;5668;52.012;8.724;2023-07-29T06:35:24;2.10;;;1.40;;
11222;SDS011;5668;52.012;8.724;2023-07-29T06:37:51;3.20;;;1.40;;
11222;SDS011;5668;52.012;8.724;2023-07-29T06:40:19;3.55;;;1.50;;
11222;SDS011;5668;52.012;8.724;2023-07-29T06:42:47;1.70;;;1.60;;
11222;SDS011;5668;52.012;8.724;2023-07-29T06:45:14;3.03;;;1.90;;
11222;SDS011;5668;52.012;8.724;2023-07-29T06:47:41;1.98;;;1.88;;
11222;SDS011;5668;52.012;8.724;2023-07-29T06:50:10;2.30;;;2.10;;
11222;SDS011;5668;52.012;8.724;2023-07-29T06:52:37;2.63;;;2.42;;
11222;SDS011;5668;52.012;8.724;2023-07-29T06:55:05;2.72;;;2.53;;
11222;SDS011;5668;52.012;8.724;2023-07-29T06:57:33;2.92;;;2.72;;
11222;SDS011;5668;52.012;8.724;2023-07-29T07:00:00;3.83;;;3.17;;
11222;SDS011;5668;52.012;8.724;2023-07-29T07:02:28;3.22;;;3.03;;
11222;SDS011;5668;52.012;8.724;2023-07-29T07:04:55;4.22;;;3.92;;
11222;SDS011;5668;52.012;8.724;2023-07-29T07:07:24;4.93;;;4.63;;
11222;SDS011;5668;52.012;8.724;2023-07-29T07:09:51;5.80;;;5.32;;
11222;SDS011;5668;52.012;8.724;2023-07-29T07:12:18;6.50;;;5.90;;
11222;SDS011;5668;52.012;8.724;2023-07-29T07:14:46;6.78;;;6.28;;
11222;SDS011;5668;52.012;8.724;2023-07-29T07:17:13;6.90;;;6.40;;
11222;SDS011;5668;52.012;8.724;2023-07-29T07:19:40;6.78;;;6.28;;
11222;SDS011;5668;52.012;8.724;2023-07-29T07:22:07;7.10;;;6.50;;
11222;SDS011;5668;52.012;8.724;2023-07-29T07:24:36;7.03;;;6.53;;
11222;SDS011;5668;52.012;8.724;2023-07-29T07:27:03;7.63;;;7.13;;
11222;SDS011;5668;52.012;8.724;2023-07-29T07:29:31;7.90;;;7.22;;
11222;SDS011;5668;52.012;8.724;2023-07-29T07:31:58;7.55;;;6.97;;
11222;SDS011;5668;52.012;8.724;2023-07-29T07:34:25;6.88;;;6.38;;
11222;SDS011;5668;52.012;8.724;2023-07-29T07:36:53;8.48;;;7.68;;
11222;SDS011;5668;52.012;8.724;2023-07-29T07:39:20;9.00;;;8.10;;
11222;SDS011;5668;52.012;8.724;2023-07-29T07:41:48;8.68;;;7.97;;
11222;SDS011;5668;52.012;8.724;2023-07-29T07:44:16;11.65;;;10.65;;
11222;SDS011;5668;52.012;8.724;2023-07-29T07:46:44;12.68;;;11.57;;
11222;SDS011;5668;52.012;8.724;2023-07-29T07:49:12;12.60;;;11.50;;
11222;SDS011;5668;52.012;8.724;2023-07-29T07:51:39;12.40;;;11.40;;
11222;SDS011;5668;52.012;8.724;2023-07-29T07:54:06;12.48;;;11.38;;
11222;SDS011;5668;52.012;8.724;2023-07-29T07:56:33;12.00;;;11.10;;
11222;SDS011;5668;52.012;8.724;2023-07-29T07:59:02;11.75;;;10.85;;
11222;SDS011;5668;52.012;8.724;2023-07-29T08:01:33;12.43;;;11.43;;
11222;SDS011;5668;52.012;8.724;2023-07-29T08:04:01;12.85;;;11.85;;
11222;SDS011;5668;52.012;8.724;2023-07-29T08:06:29;13.18;;;12.07;;
11222;SDS011;5668;52.012;8.724;2023-07-29T08:08:56;13.32;;;12.23;;
11222;SDS011;5668;52.012;8.724;2023-07-29T08:11:25;13.05;;;12.05;;
11222;SDS011;5668;52.012;8.724;2023-07-29T08:13:52;12.25;;;11.15;;
11222;SDS011;5668;52.012;8.724;2023-07-29T08:16:21;11.60;;;10.77;;
11222;SDS011;5668;52.012;8.724;2023-07-29T08:18:48;11.95;;;10.95;;
11222;SDS011;5668;52.012;8.724;2023-07-29T08:21:15;11.30;;;10.40;;
11222;SDS011;5668;52.012;8.724;2023-07-29T08:23:42;10.32;;;9.60;;
11222;SDS011;5668;52.012;8.724;2023-07-29T08:26:10;10.13;;;9.32;;
11222;SDS011;5668;52.012;8.724;2023-07-29T08:28:37;9.15;;;8.45;;
11222;SDS011;5668;52.012;8.724;2023-07-29T08:31:05;8.27;;;7.57;;
11222;SDS011;5668;52.012;8.724;2023-07-29T08:33:34;8.48;;;7.78;;
11222;SDS011;5668;52.012;8.724;2023-07-29T08:36:01;7.25;;;6.65;;
11222;SDS011;5668;52.012;8.724;2023-07-29T08:38:29;6.53;;;6.03;;
11222;SDS011;5668;52.012;8.724;2023-07-29T08:40:58;7.03;;;5.70;;
11222;SDS011;5668;52.012;8.724;2023-07-29T08:43:32;4.78;;;4.35;;
11222;SDS011;5668;52.012;8.724;2023-07-29T08:46:00;4.30;;;3.95;;
11222;SDS011;5668;52.012;8.724;2023-07-29T08:48:30;3.80;;;3.50;;
11222;SDS011;5668;52.012;8.724;2023-07-29T08:51:05;3.60;;;3.30;;
11222;SDS011;5668;52.012;8.724;2023-07-29T08:53:35;3.38;;;3.17;;
11222;SDS011;5668;52.012;8.724;2023-07-29T08:56:02;4.88;;;3.25;;
11222;SDS011;5668;52.012;8.724;2023-07-29T08:58:31;3.85;;;3.13;;
11222;SDS011;5668;52.012;8.724;2023-07-29T09:00:59;3.50;;;3.03;;
11222;SDS011;5668;52.012;8.724;2023-07-29T09:03:26;3.35;;;2.53;;
11222;SDS011;5668;52.012;8.724;2023-07-29T09:05:55;2.85;;;2.65;;
11222;SDS011;5668;52.012;8.724;2023-07-29T09:08:25;2.63;;;2.42;;
11222;SDS011;5668;52.012;8.724;2023-07-29T09:10:53;2.72;;;2.50;;
11222;SDS011;5668;52.012;8.724;2023-07-29T09:13:21;2.83;;;2.63;;
11222;SDS011;5668;52.012;8.724;2023-07-29T09:15:48;2.65;;;2.45;;
11222;SDS011;5668;52.012;8.724;2023-07-29T09:18:19;2.50;;;2.30;;
11222;SDS011;5668;52.012;8.724;2023-07-29T09:20:47;1.67;;;1.58;;
11222;SDS011;5668;52.012;8.724;2023-07-29T09:23:16;1.60;;;1.50;;
11222;SDS011;5668;52.012;8.724;2023-07-29T09:25:44;1.50;;;1.40;;
11222;SDS011;5668;52.012;8.724;2023-07-29T09:28:13;1.42;;;1.27;;
11222;SDS011;5668;52.012;8.724;2023-07-29T09:30:42;1.27;;;1.17;;
11222;SDS011;5668;52.012;8.724;2023-07-29T09:33:11;1.38;;;1.27;;
11222;SDS011;5668;52.012;8.724;2023-07-29T09:35:38;1.20;;;1.10;;
11222;SDS011;5668;52.012;8.724;2023-07-29T09:38:06;1.17;;;1.08;;
11222;SDS011;5668;52.012;8.724;2023-07-29T09:40:38;1.20;;;1.10;;
11222;SDS011;5668;52.012;8.724;2023-07-29T09:43:08;1.27;;;1.10;;
11222;SDS011;5668;52.012;8.724;2023-07-29T09:45:35;1.10;;;1.00;;
11222;SDS011;5668;52.012;8.724;2023-07-29T09:48:04;4.50;;;1.20;;
11222;SDS011;5668;52.012;8.724;2023-07-29T09:50:34;1.30;;;1.20;;
11222;SDS011;5668;52.012;8.724;2023-07-29T09:53:02;1.98;;;1.20;;
11222;SDS011;5668;52.012;8.724;2023-07-29T09:55:32;1.33;;;1.08;;
11222;SDS011;5668;52.012;8.724;2023-07-29T09:58:01;1.60;;;1.00;;
11222;SDS011;5668;52.012;8.724;2023-07-29T10:00:32;0.85;;;0.85;;
11222;SDS011;5668;52.012;8.724;2023-07-29T10:02:59;0.93;;;0.75;;
11222;SDS011;5668;52.012;8.724;2023-07-29T10:05:27;2.00;;;0.93;;
11222;SDS011;5668;52.012;8.724;2023-07-29T10:07:55;1.10;;;1.00;;
11222;SDS011;5668;52.012;8.724;2023-07-29T10:10:23;1.98;;;1.10;;
11222;SDS011;5668;52.012;8.724;2023-07-29T10:12:51;1.50;;;0.90;;
11222;SDS011;5668;52.012;8.724;2023-07-29T10:15:20;1.45;;;0.80;;
11222;SDS011;5668;52.012;8.724;2023-07-29T10:17:47;1.80;;;0.95;;
11222;SDS011;5668;52.012;8.724;2023-07-29T10:20:16;0.77;;;0.77;;
11222;SDS011;5668;52.012;8.724;2023-07-29T10:22:45;1.38;;;1.00;;
11222;SDS011;5668;52.012;8.724;2023-07-29T10:25:15;1.20;;;0.93;;
11222;SDS011;5668;52.012;8.724;2023-07-29T10:27:50;0.85;;;0.85;;
11222;SDS011;5668;52.012;8.724;2023-07-29T10:30:23;0.95;;;0.70;;
11222;SDS011;5668;52.012;8.724;2023-07-29T10:32:51;0.98;;;0.88;;
11222;SDS011;5668;52.012;8.724;2023-07-29T10:35:19;2.55;;;1.00;;
11222;SDS011;5668;52.012;8.724;2023-07-29T10:37:46;0.80;;;0.70;;
11222;SDS011;5668;52.012;8.724;2023-07-29T10:40:16;1.45;;;0.70;;
11222;SDS011;5668;52.012;8.724;2023-07-29T10:42:58;1.05;;;0.80;;
11222;SDS011;5668;52.012;8.724;2023-07-29T10:45:36;1.05;;;0.90;;
11222;SDS011;5668;52.012;8.724;2023-07-29T10:48:05;1.23;;;1.00;;
11222;SDS011;5668;52.012;8.724;2023-07-29T10:50:33;0.70;;;0.70;;
11222;SDS011;5668;52.012;8.724;2023-07-29T10:53:01;0.80;;;0.80;;
11222;SDS011;5668;52.012;8.724;2023-07-29T10:55:29;1.00;;;0.70;;
11222;SDS011;5668;52.012;8.724;2023-07-29T10:58:08;0.70;;;0.70;;
11222;SDS011;5668;52.012;8.724;2023-07-29T11:00:40;0.65;;;0.65;;
11222;SDS011;5668;52.012;8.724;2023-07-29T11:03:08;3.05;;;0.80;;
11222;SDS011;5668;52.012;8.724;2023-07-29T11:05:44;0.80;;;0.63;;
11222;SDS011;5668;52.012;8.724;2023-07-29T11:08:20;0.50;;;0.50;;
11222;SDS011;5668;52.012;8.724;2023-07-29T11:11:04;1.30;;;0.68;;
11222;SDS011;5668;52.012;8.724;2023-07-29T11:13:33;0.60;;;0.57;;
11222;SDS011;5668;52.012;8.724;2023-07-29T11:16:03;0.73;;;0.70;;
11222;SDS011;5668;52.012;8.724;2023-07-29T11:18:32;0.70;;;0.57;;
11222;SDS011;5668;52.012;8.724;2023-07-29T11:21:01;0.77;;;0.63;;
11222;SDS011;5668;52.012;8.724;2023-07-29T11:23:30;0.40;;;0.40;;
11222;SDS011;5668;52.012;8.724;2023-07-29T11:25:58;1.60;;;0.70;;
11222;SDS011;5668;52.012;8.724;2023-07-29T11:28:26;0.60;;;0.60;;
11222;SDS011;5668;52.012;8.724;2023-07-29T11:30:54;2.58;;;0.70;;
11222;SDS011;5668;52.012;8.724;2023-07-29T11:33:24;0.75;;;0.75;;
11222;SDS011;5668;52.012;8.724;2023-07-29T11:35:53;0.80;;;0.80;;
11222;SDS011;5668;52.012;8.724;2023-07-29T11:38:21;2.97;;;0.85;;
11222;SDS011;5668;52.012;8.724;2023-07-29T11:40:55;2.35;;;0.90;;
11222;SDS011;5668;52.012;8.724;2023-07-29T11:43:24;0.63;;;0.60;;
11222;SDS011;5668;52.012;8.724;2023-07-29T11:45:51;0.70;;;0.70;;
11222;SDS011;5668;52.012;8.724;2023-07-29T11:48:27;0.77;;;0.70;;
11222;SDS011;5668;52.012;8.724;2023-07-29T11:50:54;0.80;;;0.65;;
11222;SDS011;5668;52.012;8.724;2023-07-29T11:53:22;0.70;;;0.70;;
11222;SDS011;5668;52.012;8.724;2023-07-29T11:55:53;0.60;;;0.60;;
11222;SDS011;5668;52.012;8.724;2023-07-29T11:58:21;0.93;;;0.68;;
11222;SDS011;5668;52.012;8.724;2023-07-29T12:00:48;0.68;;;0.63;;
11222;SDS011;5668;52.012;8.724;2023-07-29T12:03:16;0.93;;;0.70;;
11222;SDS011;5668;52.012;8.724;2023-07-29T12:05:45;1.98;;;0.70;;
11222;SDS011;5668;52.012;8.724;2023-07-29T12:08:12;1.27;;;0.70;;
11222;SDS011;5668;52.012;8.724;2023-07-29T12:10:40;1.05;;;0.90;;
11222;SDS011;5668;52.012;8.724;2023-07-29T12:13:08;1.00;;;0.85;;
11222;SDS011;5668;52.012;8.724;2023-07-29T12:15:37;0.80;;;0.80;;
11222;SDS011;5668;52.012;8.724;2023-07-29T12:18:05;0.90;;;0.90;;
11222;SDS011;5668;52.012;8.724;2023-07-29T12:20:32;1.67;;;0.90;;
11222;SDS011;5668;52.012;8.724;2023-07-29T12:23:02;0.90;;;0.90;;
11222;SDS011;5668;52.012;8.724;2023-07-29T12:25:31;1.42;;;1.13;;
11222;SDS011;5668;52.012;8.724;2023-07-29T12:28:01;1.35;;;1.25;;
11222;SDS011;5668;52.012;8.724;2023-07-29T12:30:30;1.10;;;1.00;;
11222;SDS011;5668;52.012;8.724;2023-07-29T12:32:57;1.20;;;1.10;;
11222;SDS011;5668;52.012;8.724;2023-07-29T12:35:24;1.10;;;1.00;;
11222;SDS011;5668;52.012;8.724;2023-07-29T12:38:02;1.30;;;1.20;;
11222;SDS011;5668;52.012;8.724;2023-07-29T12:40:30;1.30;;;1.20;;
11222;SDS011;5668;52.012;8.724;2023-07-29T12:42:57;1.30;;;1.20;;
11222;SDS011;5668;52.012;8.724;2023-07-29T12:45:24;1.50;;;1.40;;
11222;SDS011;5668;52.012;8.724;2023-07-29T12:47:53;1.60;;;1.20;;
11222;SDS011;5668;52.012;8.724;2023-07-29T12:50:21;2.00;;;1.20;;
11222;SDS011;5668;52.012;8.724;2023-07-29T12:52:49;1.17;;;1.15;;
11222;SDS011;5668;52.012;8.724;2023-07-29T12:55:17;1.20;;;1.10;;
11222;SDS011;5668;52.012;8.724;2023-07-29T12:57:44;1.40;;;1.30;;
11222;SDS011;5668;52.012;8.724;2023-07-29T13:00:12;1.20;;;1.10;;
11222;SDS011;5668;52.012;8.724;2023-07-29T13:02:39;1.33;;;1.23;;
11222;SDS011;5668;52.012;8.724;2023-07-29T13:05:08;1.33;;;1.17;;
11222;SDS011;5668;52.012;8.724;2023-07-29T13:07:36;1.65;;;1.08;;
11222;SDS011;5668;52.012;8.724;2023-07-29T13:10:05;1.10;;;1.10;;
11222;SDS011;5668;52.012;8.724;2023-07-29T13:12:34;1.33;;;1.20;;
11222;SDS011;5668;52.012;8.724;2023-07-29T13:15:02;1.38;;;1.20;;
11222;SDS011;5668;52.012;8.724;2023-07-29T13:17:30;1.67;;;1.40;;
11222;SDS011;5668;52.012;8.724;2023-07-29T13:19:57;1.50;;;1.30;;
11222;SDS011;5668;52.012;8.724;2023-07-29T13:22:24;1.98;;;1.13;;
11222;SDS011;5668;52.012;8.724;2023-07-29T13:24:51;2.05;;;1.13;;
11222;SDS011;5668;52.012;8.724;2023-07-29T13:27:18;1.45;;;1.23;;
11222;SDS011;5668;52.012;8.724;2023-07-29T13:29:47;1.77;;;1.35;;
11222;SDS011;5668;52.012;8.724;2023-07-29T13:32:14;1.40;;;1.30;;
11222;SDS011;5668;52.012;8.724;2023-07-29T13:34:41;1.30;;;1.15;;
11222;SDS011;5668;52.012;8.724;2023-07-29T13:37:08;1.60;;;1.10;;
11222;SDS011;5668;52.012;8.724;2023-07-29T13:39:36;1.17;;;1.08;;
11222;SDS011;5668;52.012;8.724;2023-07-29T13:42:03;1.25;;;1.15;;
11222;SDS011;5668;52.012;8.724;2023-07-29T13:44:30;1.55;;;1.10;;
11222;SDS011;5668;52.012;8.724;2023-07-29T13:46:59;2.15;;;1.10;;
11222;SDS011;5668;52.012;8.724;2023-07-29T13:49:26;1.20;;;1.10;;
11222;SDS011;5668;52.012;8.724;2023-07-29T13:51:53;1.23;;;1.10;;
11222;SDS011;5668;52.012;8.724;2023-07-29T13:54:20;1.20;;;1.10;;
11222;SDS011;5668;52.012;8.724;2023-07-29T13:56:48;0.90;;;0.90;;
11222;SDS011;5668;52.012;8.724;2023-07-29T13:59:15;1.95;;;1.27;;
11222;SDS011;5668;52.012;8.724;2023-07-29T14:01:42;1.60;;;1.05;;
11222;SDS011;5668;52.012;8.724;2023-07-29T14:04:10;1.25;;;1.02;;
11222;SDS011;5668;52.012;8.724;2023-07-29T14:06:38;2.08;;;1.05;;
11222;SDS011;5668;52.012;8.724;2023-07-29T14:09:05;1.00;;;1.00;;
11222;SDS011;5668;52.012;8.724;2023-07-29T14:11:32;1.27;;;1.02;;
11222;SDS011;5668;52.012;8.724;2023-07-29T14:14:00;1.33;;;1.05;;
11222;SDS011;5668;52.012;8.724;2023-07-29T14:16:27;1.42;;;1.33;;
11222;SDS011;5668;52.012;8.724;2023-07-29T14:18:54;1.40;;;1.08;;
11222;SDS011;5668;52.012;8.724;2023-07-29T14:21:22;1.20;;;1.10;;
11222;SDS011;5668;52.012;8.724;2023-07-29T14:23:50;1.10;;;1.00;;
11222;SDS011;5668;52.012;8.724;2023-07-29T14:26:17;1.63;;;1.17;;
11222;SDS011;5668;52.012;8.724;2023-07-29T14:28:44;1.10;;;1.00;;
11222;SDS011;5668;52.012;8.724;2023-07-29T14:31:11;1.00;;;0.90;;
11222;SDS011;5668;52.012;8.724;2023-07-29T14:33:38;1.10;;;1.00;;
11222;SDS011;5668;52.012;8.724;2023-07-29T14:36:06;1.10;;;1.00;;
11222;SDS011;5668;52.012;8.724;2023-07-29T14:38:34;1.10;;;1.00;;
11222;SDS011;5668;52.012;8.724;2023-07-29T14:41:02;1.17;;;1.02;;
11222;SDS011;5668;52.012;8.724;2023-07-29T14:43:29;1.40;;;1.17;;
11222;SDS011;5668;52.012;8.724;2023-07-29T14:45:57;1.10;;;1.00;;
11222;SDS011;5668;52.012;8.724;2023-07-29T14:48:24;1.08;;;0.98;;
11222;SDS011;5668;52.012;8.724;2023-07-29T14:50:52;1.42;;;1.15;;
11222;SDS011;5668;52.012;8.724;2023-07-29T14:53:19;0.90;;;0.90;;
11222;SDS011;5668;52.012;8.724;2023-07-29T14:55:48;1.30;;;1.20;;
11222;SDS011;5668;52.012;8.724;2023-07-29T14:58:15;1.13;;;1.02;;
11222;SDS011;5668;52.012;8.724;2023-07-29T15:00:42;1.83;;;1.15;;
11222;SDS011;5668;52.012;8.724;2023-07-29T15:03:09;1.58;;;1.05;;
11222;SDS011;5668;52.012;8.724;2023-07-29T15:05:36;5.22;;;1.30;;